Girdletree, Maryland
Current Conditions -  °F | °C
As of 10:54 PM on Tuesday 27 Jan 2015 (Local Time) from KWAL Reporting Station
Clear Clear  
Wind Chill: 21°   Ceiling: Unl
Heat Index: 30°   Visibility: 10mi
Dew Point: 20°   Wind: 10mph
Humidity: 66%   Direction: 340°NNW
Pressure: 29.89"   Gusts: 22mph
Location:  38.09°N, 75.4°W
Report Text: KWAL 280354Z AUTO 34009G19KT 10SM CLR M01/M07 A2989 RMK AO2 SLP118 T10111067
Loading
Personal Weather Stations






























Interactive Weather Map New forecast layout! Learn more

10-Day Weather Forecast

Advertisements
Track Severe Weather on mobile